createdAt,value
2016-07-09T00:00:15.981Z,90.63
2016-07-09T00:01:15.373Z,90.44
2016-07-09T00:02:15.375Z,90.82
2016-07-09T00:03:15.372Z,90.91
2016-07-09T00:04:15.367Z,91.11
2016-07-09T00:05:15.362Z,91.11
2016-07-09T00:06:15.359Z,91.39
2016-07-09T00:07:15.362Z,91.11
2016-07-09T00:08:15.357Z,91.11
2016-07-09T00:09:15.358Z,91.11
2016-07-09T00:10:15.354Z,91.11
2016-07-09T00:11:15.355Z,91.3
2016-07-09T00:12:15.348Z,91.15
2016-07-09T00:13:15.343Z,91.34
2016-07-09T00:14:15.350Z,91.15
2016-07-09T00:15:15.343Z,91.15
2016-07-09T00:16:15.620Z,91.25
2016-07-09T00:17:15.339Z,90.77
2016-07-09T00:18:15.597Z,90.67
2016-07-09T00:19:15.428Z,90.67
2016-07-09T00:20:15.331Z,90.67
2016-07-09T00:21:15.329Z,90.86
2016-07-09T00:22:15.326Z,90.81
2016-07-09T00:23:16.441Z,91.19
2016-07-09T00:24:15.865Z,91.19
2016-07-09T00:25:15.577Z,91.39
2016-07-09T00:26:15.374Z,91.29
2016-07-09T00:27:15.319Z,91.39
2016-07-09T00:28:15.316Z,91
2016-07-09T00:29:15.315Z,90.53
2016-07-09T00:30:15.314Z,90.43
2016-07-09T00:31:15.314Z,90.81
2016-07-09T00:32:15.311Z,90.81
2016-07-09T00:33:15.304Z,90.62
2016-07-09T00:34:15.305Z,90.53
2016-07-09T00:35:15.299Z,90.23
2016-07-09T00:36:15.301Z,90.43
2016-07-09T00:37:15.300Z,90.23
2016-07-09T00:38:15.299Z,90.33
2016-07-09T00:39:15.297Z,90.43
2016-07-09T00:40:15.293Z,90.43
2016-07-09T00:41:15.289Z,90.19
2016-07-09T00:42:15.286Z,90.09
2016-07-09T00:43:15.293Z,90.39
2016-07-09T00:44:15.286Z,90.19
2016-07-09T00:45:15.282Z,90
2016-07-09T00:46:15.581Z,90.67
2016-07-09T00:47:15.737Z,90.77
2016-07-09T00:48:15.889Z,90.77
2016-07-09T00:49:15.283Z,90.58
2016-07-09T00:50:15.268Z,90.58
2016-07-09T00:51:15.271Z,90.67
2016-07-09T00:52:15.570Z,90.77
2016-07-09T00:53:15.268Z,90.67
2016-07-09T00:54:15.265Z,91.15
2016-07-09T00:59:15.251Z,90.63
2016-07-09T01:00:15.254Z,90.53
2016-07-09T01:01:15.246Z,90.72
2016-07-09T01:03:15.246Z,91.39
2016-07-09T01:04:15.240Z,91.11
2016-07-09T01:05:15.239Z,91.11
2016-07-09T01:06:15.234Z,91.11
2016-07-09T01:07:15.231Z,91.77
2016-07-09T01:08:15.234Z,91.2
2016-07-09T01:09:15.230Z,91.3
2016-07-09T01:10:15.226Z,91.2
2016-07-09T01:11:15.227Z,91.3
2016-07-09T01:12:15.830Z,91.77
2016-07-09T01:13:15.221Z,91.39
2016-07-09T01:14:15.219Z,91.68
2016-07-09T01:15:15.215Z,91.2
2016-07-09T01:16:15.208Z,91.39
2016-07-09T01:17:15.211Z,91.68
2016-07-09T01:18:15.204Z,91.39
2016-07-09T01:19:15.207Z,91.2
2016-07-09T01:20:15.204Z,91.68
2016-07-09T01:21:15.203Z,91.2
2016-07-09T01:22:15.198Z,91.15
2016-07-09T01:23:15.190Z,91.44
2016-07-09T01:24:15.194Z,91.15
2016-07-09T01:25:15.190Z,91.25
2016-07-09T01:26:15.188Z,91.44
2016-07-09T01:27:15.182Z,90.96
2016-07-09T01:28:15.184Z,90.48
2016-07-09T01:29:15.282Z,90.67
2016-07-09T01:30:15.182Z,90.67
2016-07-09T01:31:15.178Z,90.58
2016-07-09T01:32:15.591Z,90.86
2016-07-09T01:33:17.495Z,90.86
2016-07-09T01:34:15.476Z,90.86
2016-07-09T01:35:15.415Z,91.34
2016-07-09T01:36:15.163Z,91.05
2016-07-09T01:37:15.497Z,90.67
2016-07-09T01:38:15.686Z,90.77
2016-07-09T01:39:15.161Z,90.77
2016-07-09T01:40:15.154Z,90.29
2016-07-09T01:41:15.158Z,90.58
2016-07-09T01:42:16.429Z,90.39
2016-07-09T01:43:15.192Z,90.33
2016-07-09T01:44:15.779Z,90.19
2016-07-09T01:45:15.992Z,89.86
2016-07-09T01:46:15.143Z,89.86
2016-07-09T01:47:15.562Z,89.66
2016-07-09T01:48:15.485Z,90.14
2016-07-09T01:49:15.135Z,89.57
2016-07-09T01:50:15.136Z,89.18
2016-07-09T01:51:15.136Z,89.43
2016-07-09T01:52:15.127Z,89.52
2016-07-09T01:53:15.132Z,89.23
2016-07-09T01:54:15.124Z,89.52
2016-07-09T01:55:15.120Z,89.14
2016-07-09T01:56:15.120Z,89.14
2016-07-09T01:57:15.128Z,89.43
2016-07-09T01:58:15.116Z,89.23
2016-07-09T01:59:15.113Z,89.19
2016-07-09T02:00:15.114Z,89
2016-07-09T02:01:15.108Z,89.19
2016-07-09T02:02:15.106Z,89.29
2016-07-09T02:03:15.109Z,89.67
2016-07-09T02:04:15.153Z,89.95
2016-07-09T02:05:15.254Z,89.76
2016-07-09T02:06:15.302Z,89.86
2016-07-09T02:07:15.095Z,90.34
2016-07-09T02:08:15.094Z,90.24
2016-07-09T02:09:15.096Z,90.24
2016-07-09T02:10:15.093Z,90.53
2016-07-09T02:11:15.089Z,90.72
2016-07-09T02:12:15.089Z,90.53
2016-07-09T02:13:15.888Z,90.53
2016-07-09T02:14:15.133Z,90.82
2016-07-09T02:15:15.081Z,90.44
2016-07-09T02:16:15.078Z,90.34
2016-07-09T02:17:15.620Z,90.44
2016-07-09T02:18:15.074Z,90.44
2016-07-09T02:19:15.120Z,90.24
2016-07-09T02:20:15.069Z,90.15
2016-07-09T02:21:15.063Z,89.67
2016-07-09T02:22:15.058Z,90.19
2016-07-09T02:23:15.059Z,89.9
2016-07-09T02:24:15.056Z,89.04
2016-07-09T02:25:15.056Z,89.43
2016-07-09T02:26:15.056Z,89.52
2016-07-09T02:27:15.051Z,89.52
2016-07-09T02:28:15.055Z,89.33
2016-07-09T02:29:15.049Z,89.52
2016-07-09T02:30:15.049Z,89.52
2016-07-09T02:31:15.037Z,89.52
2016-07-09T02:32:15.041Z,89.04
2016-07-09T02:33:15.039Z,89.23
2016-07-09T02:34:15.033Z,89.52
2016-07-09T02:35:15.034Z,89.14
2016-07-09T02:36:15.030Z,89.52
2016-07-09T02:37:15.040Z,89.04
2016-07-09T02:38:15.028Z,89.62
2016-07-09T02:39:15.022Z,89.23
2016-07-09T02:40:15.022Z,89.23
2016-07-09T02:41:15.020Z,89.23
2016-07-09T02:42:15.022Z,89.04
2016-07-09T02:43:15.023Z,89.14
2016-07-09T02:44:15.015Z,89.43
2016-07-09T02:45:15.010Z,89.23
2016-07-09T02:46:15.010Z,88.95
2016-07-09T02:47:15.004Z,89.43
2016-07-09T02:48:15.001Z,89.23
2016-07-09T02:49:15.002Z,88.85
2016-07-09T02:50:14.997Z,88.76
2016-07-09T02:51:15.165Z,88.66
2016-07-09T02:52:15.008Z,89.38
2016-07-09T02:53:15.791Z,89.29
2016-07-09T02:54:14.995Z,88.9
2016-07-09T02:55:14.991Z,88.52
2016-07-09T02:56:14.989Z,89.04
2016-07-09T02:57:15.283Z,89.04
2016-07-09T02:58:15.108Z,88.85
2016-07-09T02:59:14.981Z,89.04
2016-07-09T03:00:16.544Z,88.56
2016-07-09T03:01:15.066Z,88.28
2016-07-09T03:02:14.986Z,88.37
2016-07-09T03:03:14.994Z,88.28
2016-07-09T03:04:15.060Z,88.09
2016-07-09T03:05:14.970Z,88.37
2016-07-09T03:06:15.279Z,88.28
2016-07-09T03:07:14.960Z,87.99
2016-07-09T03:08:14.964Z,88.18
2016-07-09T03:09:14.959Z,88.09
2016-07-09T03:10:14.954Z,87.51
2016-07-09T03:11:14.951Z,87.8
2016-07-09T03:12:14.954Z,87.9
2016-07-09T03:13:14.954Z,87.23
2016-07-09T03:14:14.951Z,87.7
2016-07-09T03:15:14.952Z,87.8
2016-07-09T03:16:14.943Z,87.8
2016-07-09T03:17:14.941Z,87.99
2016-07-09T03:18:14.938Z,87.23
2016-07-09T03:19:14.938Z,87.7
2016-07-09T03:20:14.932Z,87.32
2016-07-09T03:21:14.933Z,87.51
2016-07-09T03:22:14.935Z,87.41
2016-07-09T03:23:29.832Z,87.51
2016-07-09T03:24:14.925Z,87.7
2016-07-09T03:25:15.728Z,87.32
2016-07-09T03:26:14.921Z,87.13
2016-07-09T03:27:14.972Z,87.23
2016-07-09T03:28:14.916Z,86.74
2016-07-09T03:29:14.917Z,86.94
2016-07-09T03:30:15.063Z,86.65
2016-07-09T03:31:14.911Z,86.36
2016-07-09T03:32:14.908Z,86.36
2016-07-09T03:33:15.354Z,86.36
2016-07-09T03:34:14.901Z,86.08
2016-07-09T03:35:15.202Z,85.88
2016-07-09T03:36:14.902Z,85.5
2016-07-09T03:37:14.899Z,85.21
2016-07-09T03:38:14.902Z,85.21
2016-07-09T03:39:14.898Z,85.45
2016-07-09T03:40:14.894Z,85.64
2016-07-09T03:41:14.891Z,85.54
2016-07-09T03:42:14.895Z,85.06
2016-07-09T03:43:14.890Z,84.97
2016-07-09T03:44:14.881Z,84.97
2016-07-09T03:45:14.883Z,85.01
2016-07-09T03:46:14.883Z,84.25
2016-07-09T03:47:14.882Z,84.25
2016-07-09T03:48:14.879Z,84.05
2016-07-09T03:49:14.885Z,83.95
2016-07-09T03:50:14.877Z,84.09
2016-07-09T03:51:14.875Z,83.52
2016-07-09T03:52:14.874Z,82.7
2016-07-09T03:53:14.875Z,82.03
2016-07-09T03:54:14.871Z,81.64
2016-07-09T03:55:14.871Z,81.64
2016-07-09T03:56:14.865Z,80.91
2016-07-09T03:57:14.866Z,81.01
2016-07-09T03:58:14.870Z,81.49
2016-07-09T03:59:14.863Z,80.63
2016-07-09T04:00:14.862Z,81.1
2016-07-09T04:01:14.868Z,80.05
2016-07-09T04:02:14.859Z,80.53
2016-07-09T04:03:14.877Z,79.86
2016-07-09T04:04:14.861Z,79.67
2016-07-09T04:05:14.863Z,80.15
2016-07-09T04:06:14.859Z,78.99
2016-07-09T04:07:14.868Z,79.19
2016-07-09T04:08:14.862Z,79.38
2016-07-09T04:09:16.244Z,79.38
2016-07-09T04:10:16.323Z,79.19
2016-07-09T04:11:14.857Z,79.09
2016-07-09T04:12:15.600Z,79.38
2016-07-09T04:13:14.852Z,78.99
2016-07-09T04:14:14.854Z,79.47
2016-07-09T04:15:15.034Z,78.99
2016-07-09T04:16:14.853Z,79.53
2016-07-09T04:17:14.855Z,79.24
2016-07-09T04:18:16.135Z,79.24
2016-07-09T04:19:14.852Z,79.14
2016-07-09T04:20:16.299Z,79.24
2016-07-09T04:21:15.716Z,79.05
2016-07-09T04:22:14.851Z,79.24
2016-07-09T04:23:14.848Z,79.14
2016-07-09T04:24:14.851Z,79.24
2016-07-09T04:25:14.850Z,79.05
2016-07-09T04:26:14.850Z,79.14
2016-07-09T04:27:14.846Z,79.34
2016-07-09T04:28:14.846Z,79.24
2016-07-09T04:29:14.842Z,79.05
2016-07-09T04:30:14.848Z,78.96
2016-07-09T04:31:14.838Z,79.05
2016-07-09T04:32:14.839Z,79.24
2016-07-09T04:33:14.840Z,79.24
2016-07-09T04:34:14.839Z,79.14
2016-07-09T04:35:14.834Z,79.44
2016-07-09T04:36:14.838Z,79.24
2016-07-09T04:37:14.834Z,79.34
2016-07-09T04:38:14.832Z,79.05
2016-07-09T04:39:14.833Z,79.24
2016-07-09T04:40:14.834Z,79.53
2016-07-09T04:41:14.834Z,78.67
2016-07-09T04:42:14.831Z,78.86
2016-07-09T04:43:15.735Z,78.86
2016-07-09T04:44:14.825Z,78.67
2016-07-09T04:45:14.830Z,79.14
2016-07-09T04:46:14.826Z,79.34
2016-07-09T04:47:14.833Z,78.77
2016-07-09T04:48:14.827Z,78.86
2016-07-09T04:49:14.820Z,79.44
2016-07-09T04:50:15.393Z,79.24
2016-07-09T04:51:15.925Z,79.14
2016-07-09T04:52:14.819Z,79.14
2016-07-09T04:53:14.817Z,79.05
2016-07-09T04:54:14.814Z,79.63
2016-07-09T04:55:14.820Z,78.96
2016-07-09T04:56:15.113Z,78.57
2016-07-09T04:57:14.816Z,78.96
2016-07-09T04:58:14.812Z,78.57
2016-07-09T04:59:14.809Z,79.05
2016-07-09T05:00:14.819Z,78.67
2016-07-09T05:01:14.811Z,78
2016-07-09T05:02:14.806Z,77.9
2016-07-09T05:03:14.805Z,77.71
2016-07-09T05:04:14.808Z,77.8
2016-07-09T05:05:14.808Z,77.33
2016-07-09T05:06:14.802Z,77.23
2016-07-09T05:07:14.806Z,77.04
2016-07-09T05:08:14.807Z,76.94
2016-07-09T05:09:14.802Z,76.56
2016-07-09T05:10:14.805Z,76.46
2016-07-09T05:11:14.798Z,76.46
2016-07-09T05:12:14.802Z,75.98
2016-07-09T05:13:14.799Z,75.63
2016-07-09T05:14:14.800Z,75.63
2016-07-09T05:15:14.800Z,75.73
2016-07-09T05:16:14.793Z,75.06
2016-07-09T05:17:14.799Z,74.71
2016-07-09T05:18:14.801Z,74.17
2016-07-09T05:19:14.797Z,73.6
2016-07-09T05:20:14.801Z,71.91
2016-07-09T05:21:14.802Z,71.55
2016-07-09T05:22:14.797Z,70.78
2016-07-09T05:23:14.795Z,70.72
2016-07-09T05:24:14.802Z,68.54
2016-07-09T05:25:14.809Z,68
2016-07-09T05:26:14.806Z,67.03
2016-07-09T05:27:16.314Z,66.39
2016-07-09T05:28:16.538Z,65.56
2016-07-09T05:29:14.814Z,64.05
2016-07-09T05:30:14.812Z,63.31
2016-07-09T05:31:14.818Z,62.54
2016-07-09T05:32:14.827Z,61.41
2016-07-09T05:33:14.826Z,60.6
2016-07-09T05:34:14.831Z,58.21
2016-07-09T05:35:14.847Z,56.79
2016-07-09T05:37:15.726Z,55.78
2016-07-09T05:38:14.857Z,54.94
2016-07-09T05:39:15.191Z,53.61
2016-07-09T05:40:15.339Z,53.31
2016-07-09T05:41:14.874Z,52.47
2016-07-09T05:42:14.887Z,52.37
2016-07-09T05:43:14.892Z,51.43
2016-07-09T05:44:14.896Z,50.94
2016-07-09T05:45:14.906Z,50.36
2016-07-09T05:46:14.914Z,49.77
2016-07-09T05:47:14.923Z,49.58
2016-07-09T05:48:14.929Z,48.88
2016-07-09T05:49:14.937Z,48.88
2016-07-09T05:50:14.940Z,48.76
2016-07-09T05:51:14.948Z,48.76
2016-07-09T05:52:14.966Z,48.57
2016-07-09T05:53:14.969Z,48.27
2016-07-09T05:54:14.980Z,48.44
2016-07-09T05:55:14.984Z,48.35
2016-07-09T05:56:14.988Z,48.44
2016-07-09T05:57:14.993Z,48.35
2016-07-09T05:58:15.002Z,48.15
2016-07-09T05:59:15.907Z,48.37
2016-07-09T06:00:15.169Z,47.79
2016-07-09T06:01:29.984Z,47.13
2016-07-09T06:02:15.234Z,47.06
2016-07-09T06:03:15.036Z,46.67
2016-07-09T06:04:15.049Z,45.82
2016-07-09T06:05:15.055Z,44.95
2016-07-09T06:06:15.064Z,44.75
2016-07-09T06:07:15.070Z,44.58
2016-07-09T06:08:15.531Z,44.29
2016-07-09T06:09:15.287Z,43.88
2016-07-09T06:10:15.093Z,44.17
2016-07-09T06:11:15.103Z,44.07
2016-07-09T06:12:15.669Z,44.27
2016-07-09T06:13:15.124Z,43.88
2016-07-09T06:14:15.126Z,43.86
2016-07-09T06:15:15.284Z,44.15
2016-07-09T06:16:15.144Z,44.32
2016-07-09T06:17:15.154Z,44.42
2016-07-09T06:18:15.160Z,44.51
2016-07-09T06:19:15.164Z,44.59
2016-07-09T06:20:15.174Z,44.78
2016-07-09T06:21:15.185Z,44.3
2016-07-09T06:22:15.189Z,44.1
2016-07-09T06:23:15.194Z,44.27
2016-07-09T06:24:15.204Z,44.54
2016-07-09T06:25:15.226Z,44.93
2016-07-09T06:26:15.214Z,45.01
2016-07-09T06:27:15.225Z,45.4
2016-07-09T06:28:15.234Z,45.59
2016-07-09T06:29:15.235Z,45.03
2016-07-09T06:30:15.393Z,44.76
2016-07-09T06:31:15.254Z,44.1
2016-07-09T06:32:15.256Z,42.09
2016-07-09T06:33:15.269Z,41.61
2016-07-09T06:34:15.280Z,41.43
2016-07-09T06:35:15.289Z,40.75
2016-07-09T06:36:15.298Z,39.98
2016-07-09T06:37:15.304Z,40.09
2016-07-09T06:38:15.313Z,39.61
2016-07-09T06:39:15.324Z,39.26
2016-07-09T06:40:15.337Z,39.06
2016-07-09T06:41:15.344Z,38.01
2016-07-09T06:42:15.355Z,38.21
2016-07-09T06:43:15.368Z,37.92
2016-07-09T06:44:15.384Z,38.21
2016-07-09T06:46:16.866Z,37.8
2016-07-09T06:47:15.964Z,37.7
2016-07-09T06:48:15.415Z,37.99
2016-07-09T06:49:15.429Z,38.01
2016-07-09T06:50:15.439Z,37.41
2016-07-09T06:51:15.447Z,37.8
2016-07-09T06:52:15.686Z,37.6
2016-07-09T06:53:15.472Z,37.8
2016-07-09T06:54:15.477Z,37.99
2016-07-09T06:55:15.492Z,37.6
2016-07-09T06:56:15.496Z,37.6
2016-07-09T06:57:15.601Z,37.8
2016-07-09T06:58:15.517Z,37.98
2016-07-09T06:59:15.526Z,38.75
2016-07-09T07:00:15.546Z,38.73
2016-07-09T07:01:15.551Z,39.59
2016-07-09T07:02:15.553Z,39.95
2016-07-09T07:03:15.569Z,40.61
2016-07-09T07:04:15.574Z,40.61
2016-07-09T07:05:15.583Z,40.64
2016-07-09T07:06:15.594Z,40.34
2016-07-09T07:07:15.610Z,39.29
2016-07-09T07:08:15.614Z,39.53
2016-07-09T07:09:15.626Z,38.09
2016-07-09T07:10:15.636Z,38.01
2016-07-09T07:11:15.646Z,37.45
2016-07-09T07:12:15.654Z,37.27
2016-07-09T07:13:15.663Z,35.93
2016-07-09T07:14:15.682Z,34.88
2016-07-09T07:15:15.688Z,33.53
2016-07-09T07:16:15.702Z,32.86
2016-07-09T07:17:16.018Z,33.06
2016-07-09T07:18:16.028Z,32.96
2016-07-09T07:19:16.292Z,32.19
2016-07-09T07:20:16.306Z,31.9
2016-07-09T07:21:16.219Z,31.8
2016-07-09T07:22:15.780Z,31.7
2016-07-09T07:23:15.793Z,31.69
2016-07-09T07:24:15.806Z,31.79
2016-07-09T07:25:15.816Z,31.67
2016-07-09T07:27:15.844Z,33.09
2016-07-09T07:28:15.856Z,33.48
2016-07-09T07:29:15.862Z,33.48
2016-07-09T07:30:15.925Z,33.46
2016-07-09T07:31:15.884Z,33.85
2016-07-09T07:32:15.895Z,34.42
2016-07-09T07:33:15.903Z,34.69
2016-07-09T07:34:15.915Z,35.16
2016-07-09T07:35:15.927Z,35.82
2016-07-09T07:36:15.939Z,36
2016-07-09T07:37:15.945Z,37.05
2016-07-09T07:38:15.954Z,37.32
2016-07-09T07:39:15.965Z,37.51
2016-07-09T07:40:15.968Z,37.81
2016-07-09T07:41:15.979Z,37.63
2016-07-09T07:42:15.992Z,37.82
2016-07-09T07:43:15.994Z,37.74
2016-07-09T07:44:16.007Z,37.07
2016-07-09T07:45:16.018Z,37.47
2016-07-09T07:46:16.027Z,37.47
2016-07-09T07:47:16.033Z,37.47
2016-07-09T07:48:16.046Z,37.66
2016-07-09T07:49:16.668Z,37.28
2016-07-09T07:50:16.074Z,36.81
2016-07-09T07:51:16.067Z,36.61
2016-07-09T07:52:16.081Z,36.21
2016-07-09T07:53:16.099Z,36.13
2016-07-09T07:54:16.099Z,36.13
2016-07-09T07:55:16.108Z,35.08
2016-07-09T07:56:16.112Z,34.8
2016-07-09T07:57:16.125Z,34.05
2016-07-09T07:58:16.132Z,33.67
2016-07-09T07:59:16.147Z,32.91
2016-07-09T08:00:16.155Z,32.71
2016-07-09T08:01:16.170Z,32.42
2016-07-09T08:02:16.180Z,32.52
2016-07-09T08:03:16.189Z,32.13
2016-07-09T08:04:16.198Z,32.4
2016-07-09T08:05:16.210Z,32.99
2016-07-09T08:06:17.575Z,33.46
2016-07-09T08:07:16.226Z,33.56
2016-07-09T08:08:16.501Z,33.46
2016-07-09T08:09:16.267Z,33.65
2016-07-09T08:10:16.260Z,33.44
2016-07-09T08:11:16.265Z,33.83
2016-07-09T08:12:16.280Z,34.12
2016-07-09T08:13:18.362Z,34.12
2016-07-09T08:14:17.054Z,34.42
2016-07-09T08:15:16.308Z,34.4
2016-07-09T08:16:16.315Z,34.79
2016-07-09T08:17:16.320Z,34.87
2016-07-09T08:18:16.331Z,34.97
2016-07-09T08:19:16.341Z,35.16
2016-07-09T08:20:16.352Z,36.02
2016-07-09T08:21:16.436Z,35.92
2016-07-09T08:22:16.368Z,36.1
2016-07-09T08:23:16.374Z,36.77
2016-07-09T08:24:16.381Z,37.34
2016-07-09T08:25:16.391Z,37.15
2016-07-09T08:26:16.394Z,37.71
2016-07-09T08:27:16.405Z,37.53
2016-07-09T08:28:16.409Z,37.41
2016-07-09T08:29:16.424Z,37.61
2016-07-09T08:30:16.536Z,37.81
2016-07-09T08:31:16.440Z,37.81
2016-07-09T08:32:16.440Z,37.98
2016-07-09T08:33:16.456Z,38.07
2016-07-09T08:34:16.460Z,38.27
2016-07-09T08:35:17.119Z,38.37
2016-07-09T08:36:17.269Z,38.27
2016-07-09T08:37:16.731Z,38.54
2016-07-09T08:38:16.487Z,38.93
2016-07-09T08:39:16.493Z,39.12
2016-07-09T08:40:16.498Z,39.22
2016-07-09T08:41:16.649Z,39.39
2016-07-09T08:42:16.509Z,39.59
2016-07-09T08:43:16.517Z,40.34
2016-07-09T08:44:16.523Z,40.63
2016-07-09T08:45:16.531Z,40.03
2016-07-09T08:46:16.531Z,40.9
2016-07-09T08:47:31.798Z,41.39
2016-07-09T08:48:16.547Z,41.29
2016-07-09T08:49:16.548Z,41.46
2016-07-09T08:50:16.552Z,41.27
2016-07-09T08:51:16.571Z,41.46
2016-07-09T08:52:16.565Z,41.46
2016-07-09T08:53:16.570Z,41.75
2016-07-09T08:54:16.572Z,41.83
2016-07-09T08:55:16.582Z,41.75
2016-07-09T08:56:16.586Z,41.85
2016-07-09T08:57:16.592Z,41.46
2016-07-09T08:58:16.594Z,41.29
2016-07-09T08:59:16.597Z,41.19
2016-07-09T09:00:16.604Z,41.19
2016-07-09T09:01:16.613Z,41.21
2016-07-09T09:02:16.615Z,41.11
2016-07-09T09:03:16.635Z,41.11
2016-07-09T09:04:16.627Z,41.21
2016-07-09T09:05:16.632Z,40.83
2016-07-09T09:06:16.636Z,40.53
2016-07-09T09:07:16.642Z,40.44
2016-07-09T09:08:16.649Z,40.15
2016-07-09T09:09:16.651Z,40.81
2016-07-09T09:10:16.656Z,40.9
2016-07-09T09:11:16.659Z,40.61
2016-07-09T09:12:16.667Z,40.81
2016-07-09T09:13:16.674Z,40.63
2016-07-09T09:14:16.677Z,41.09
2016-07-09T09:15:16.681Z,41.09
2016-07-09T09:16:16.696Z,40.92
2016-07-09T09:17:16.694Z,41.09
2016-07-09T09:18:16.697Z,41.02
2016-07-09T09:19:16.700Z,41.21
2016-07-09T09:20:16.715Z,41.02
2016-07-09T09:21:16.712Z,40.92
2016-07-09T09:22:17.320Z,40.92
2016-07-09T09:24:18.052Z,40.53
2016-07-09T09:25:17.570Z,40.44
2016-07-09T09:26:16.737Z,40.53
2016-07-09T09:27:17.409Z,40.44
2016-07-09T09:28:16.746Z,40.65
2016-07-09T09:29:16.753Z,40.46
2016-07-09T09:30:16.762Z,39.9
2016-07-09T09:31:16.761Z,39.51
2016-07-09T09:32:18.280Z,39.22
2016-07-09T09:33:16.778Z,39.72
2016-07-09T09:34:16.784Z,39.14
2016-07-09T09:35:16.788Z,39.34
2016-07-09T09:36:17.019Z,39.14
2016-07-09T09:37:17.185Z,38.85
2016-07-09T09:38:16.806Z,38.46
2016-07-09T09:39:16.813Z,38.56
2016-07-09T09:40:16.815Z,38.76
2016-07-09T09:41:16.827Z,38.66
2016-07-09T09:42:16.828Z,38.76
2016-07-09T09:43:16.841Z,38.66
2016-07-09T09:44:16.843Z,38.85
2016-07-09T09:45:16.848Z,39.03
2016-07-09T09:46:16.856Z,39.03
2016-07-09T09:47:16.858Z,38.73
2016-07-09T09:48:16.864Z,38.85
2016-07-09T09:49:16.875Z,38.46
2016-07-09T09:50:16.891Z,39.14
2016-07-09T09:51:16.886Z,38.76
2016-07-09T09:52:16.897Z,39.03
2016-07-09T09:53:17.719Z,39.12
2016-07-09T09:54:17.155Z,39.2
2016-07-09T09:55:17.309Z,39.2
2016-07-09T09:56:17.867Z,40.15
2016-07-09T09:57:16.915Z,40.53
2016-07-09T09:58:16.922Z,40.52
2016-07-09T09:59:16.927Z,41
2016-07-09T10:00:16.931Z,40.88
2016-07-09T10:01:17.550Z,41.17
2016-07-09T10:02:16.941Z,41.36
2016-07-09T10:03:16.946Z,41.63
2016-07-09T10:04:16.954Z,41.83
2016-07-09T10:05:17.061Z,41.63
2016-07-09T10:06:16.957Z,42.12
2016-07-09T10:07:17.465Z,42.21
2016-07-09T10:08:17.323Z,41.93
2016-07-09T10:09:16.968Z,41.83
2016-07-09T10:10:16.973Z,41.83
2016-07-09T10:11:16.982Z,41.75
2016-07-09T10:12:16.983Z,41.36
2016-07-09T10:13:16.995Z,41.36
2016-07-09T10:14:16.995Z,41.56
2016-07-09T10:15:16.998Z,41.17
2016-07-09T10:16:17.007Z,41.09
2016-07-09T10:17:17.007Z,41
2016-07-09T10:18:17.011Z,40.9
2016-07-09T10:19:17.018Z,40.71
2016-07-09T10:20:17.019Z,40.9
2016-07-09T10:21:17.023Z,41.19
2016-07-09T10:22:17.031Z,41.27
2016-07-09T10:23:17.031Z,41.17
2016-07-09T10:24:17.045Z,41.36
2016-07-09T10:25:17.042Z,41.46
2016-07-09T10:26:17.044Z,41.17
2016-07-09T10:27:17.050Z,41
2016-07-09T10:28:17.055Z,41.19
2016-07-09T10:29:17.060Z,41.09
2016-07-09T10:30:17.365Z,41.19
2016-07-09T10:31:17.072Z,41.21
2016-07-09T10:32:17.078Z,40.83
2016-07-09T10:33:17.083Z,40.73
2016-07-09T10:34:17.082Z,40.15
2016-07-09T10:35:17.093Z,39.57
2016-07-09T10:36:17.095Z,38.99
2016-07-09T10:37:17.102Z,39.57
2016-07-09T10:38:17.105Z,39.57
2016-07-09T10:39:17.109Z,39.28
2016-07-09T10:40:17.912Z,39.28
2016-07-09T10:41:18.314Z,39.74
2016-07-09T10:42:17.124Z,39.84
2016-07-09T10:43:17.221Z,40.23
2016-07-09T10:44:17.139Z,40.52
2016-07-09T10:45:17.139Z,40.5
2016-07-09T10:46:17.147Z,40.2
2016-07-09T10:47:17.151Z,40.78
2016-07-09T10:48:17.158Z,40.78
2016-07-09T10:50:18.140Z,41.08
2016-07-09T10:51:17.291Z,41.25
2016-07-09T10:52:18.411Z,41.52
2016-07-09T10:53:17.181Z,41.61
2016-07-09T10:54:17.968Z,41.81
2016-07-09T10:55:17.187Z,41.61
2016-07-09T10:56:17.189Z,41.91
2016-07-09T10:57:17.195Z,42
2016-07-09T10:58:17.200Z,41.91
2016-07-09T10:59:17.207Z,41.91
2016-07-09T11:00:17.215Z,41.83
2016-07-09T11:01:17.210Z,41.63
2016-07-09T11:02:17.214Z,41.25
2016-07-09T11:03:17.217Z,41.15
2016-07-09T11:04:17.223Z,41.27
2016-07-09T11:05:17.227Z,41.08
2016-07-09T11:06:17.229Z,41.17
2016-07-09T11:07:17.234Z,40.32
2016-07-09T11:08:17.236Z,40.32
2016-07-09T11:09:17.242Z,40.13
2016-07-09T11:10:17.248Z,40.42
2016-07-09T11:11:17.255Z,40.32
2016-07-09T11:12:17.258Z,40.13
2016-07-09T11:13:17.711Z,39.84
2016-07-09T11:14:17.263Z,40.5
2016-07-09T11:15:17.271Z,40.3
2016-07-09T11:16:17.273Z,40.77
2016-07-09T11:17:17.282Z,40.77
2016-07-09T11:18:17.286Z,41.05
2016-07-09T11:19:17.291Z,41.25
2016-07-09T11:20:17.296Z,41.44
2016-07-09T11:21:18.601Z,41.52
2016-07-09T11:22:17.302Z,41.52
2016-07-09T11:23:18.208Z,41.81
2016-07-09T11:24:17.311Z,42.19
2016-07-09T11:25:17.915Z,41.91
2016-07-09T11:26:17.317Z,41.91
2016-07-09T11:27:17.323Z,42
2016-07-09T11:28:17.320Z,41.81
2016-07-09T11:29:17.326Z,42.1
2016-07-09T11:30:17.333Z,42
2016-07-09T11:31:17.332Z,41.71
2016-07-09T11:32:17.339Z,41.44
2016-07-09T11:33:17.346Z,41.35
2016-07-09T11:34:17.347Z,41.15
2016-07-09T11:35:17.352Z,41.08
2016-07-09T11:36:17.351Z,40.98
2016-07-09T11:37:17.362Z,40.88
2016-07-09T11:38:17.364Z,40.42
2016-07-09T11:39:17.363Z,40.13
2016-07-09T11:40:17.373Z,39.95
2016-07-09T11:41:17.373Z,39.94
2016-07-09T11:42:17.379Z,39.67
2016-07-09T11:43:17.384Z,39.47
2016-07-09T11:44:17.388Z,39.01
2016-07-09T11:45:17.401Z,38.91
2016-07-09T11:46:17.398Z,38.91
2016-07-09T11:47:17.402Z,38.25
2016-07-09T11:48:17.408Z,38.23
2016-07-09T11:49:17.427Z,37.75
2016-07-09T11:50:17.418Z,38.33
2016-07-09T11:51:17.424Z,38.13
2016-07-09T11:52:17.433Z,38.13
2016-07-09T11:53:17.430Z,37.87
2016-07-09T11:54:17.438Z,37.67
2016-07-09T11:55:17.443Z,37.57
2016-07-09T11:56:17.449Z,37.4
2016-07-09T11:57:17.454Z,37.59
2016-07-09T11:58:17.461Z,37.69
2016-07-09T11:59:19.469Z,37.21
2016-07-09T12:00:18.982Z,37.11
2016-07-09T12:01:18.434Z,37.3
2016-07-09T12:02:18.626Z,37.4
2016-07-09T12:03:18.376Z,37.21
2016-07-09T12:04:17.696Z,37.41
2016-07-09T12:05:17.506Z,37.23
2016-07-09T12:06:17.513Z,37.03
2016-07-09T12:07:17.519Z,36.54
2016-07-09T12:08:17.521Z,36.44
2016-07-09T12:09:17.531Z,36.93
2016-07-09T12:10:17.616Z,37.13
2016-07-09T12:11:18.139Z,36.93
2016-07-09T12:12:18.392Z,36.16
2016-07-09T12:13:18.166Z,36.36
2016-07-09T12:14:17.561Z,36
2016-07-09T12:15:17.562Z,35.8
2016-07-09T12:16:17.573Z,35.32
2016-07-09T12:17:17.578Z,34.95
2016-07-09T12:18:17.586Z,35.14
2016-07-09T12:19:17.590Z,34.56
2016-07-09T12:20:17.599Z,34.17
2016-07-09T12:21:17.606Z,33.39
2016-07-09T12:22:17.615Z,33.96
2016-07-09T12:23:17.623Z,34.08
2016-07-09T12:24:17.625Z,33.98
2016-07-09T12:25:17.640Z,33.39
2016-07-09T12:26:17.637Z,33.69
2016-07-09T12:27:17.647Z,33.49
2016-07-09T12:28:17.661Z,33.39
2016-07-09T12:29:17.661Z,33.49
2016-07-09T12:30:18.232Z,33.39
2016-07-09T12:31:17.975Z,33.69
2016-07-09T12:32:17.684Z,33.31
2016-07-09T12:33:17.737Z,33.31
2016-07-09T12:34:18.199Z,33.04
2016-07-09T12:35:17.701Z,32.86
2016-07-09T12:36:18.014Z,32.76
2016-07-09T12:37:17.922Z,32.2
2016-07-09T12:38:17.723Z,32.29
2016-07-09T12:39:17.734Z,32
2016-07-09T12:40:17.745Z,31.81
2016-07-09T12:41:17.749Z,31.71
2016-07-09T12:42:17.762Z,31.61
2016-07-09T12:43:18.322Z,31.71
2016-07-09T12:44:17.771Z,31.51
2016-07-09T12:45:17.780Z,31.24
2016-07-09T12:46:17.791Z,31.14
2016-07-09T12:47:17.798Z,31.43
2016-07-09T12:48:17.805Z,31.14
2016-07-09T12:49:17.815Z,30.94
2016-07-09T12:50:17.824Z,30.75
2016-07-09T12:51:17.826Z,31.22
2016-07-09T12:52:17.834Z,31.13
2016-07-09T12:53:17.850Z,31.22
2016-07-09T12:54:17.854Z,31.51
2016-07-09T12:55:17.859Z,31.51
2016-07-09T12:56:17.868Z,31.51
2016-07-09T12:57:17.888Z,30.93
2016-07-09T12:58:17.887Z,31.11
2016-07-09T12:59:17.893Z,31.03
2016-07-09T13:00:17.904Z,30.91
2016-07-09T13:01:17.912Z,31.13
2016-07-09T13:02:17.925Z,31.11
2016-07-09T13:03:17.924Z,31.13
2016-07-09T13:04:17.937Z,30.83
2016-07-09T13:05:17.942Z,30.35